sensor_id;sensor_type;location;lat;lon;timestamp;P1;durP1;ratioP1;P2;durP2;ratioP2
4971;SDS011;2501;51.214;6.768;2023-03-03T00:02:07;80.35;;;35.60;;
4971;SDS011;2501;51.214;6.768;2023-03-03T00:04:36;90.27;;;38.63;;
4971;SDS011;2501;51.214;6.768;2023-03-03T00:07:04;84.00;;;36.08;;
4971;SDS011;2501;51.214;6.768;2023-03-03T00:09:32;77.18;;;33.28;;
4971;SDS011;2501;51.214;6.768;2023-03-03T00:12:10;75.85;;;33.75;;
4971;SDS011;2501;51.214;6.768;2023-03-03T00:14:47;75.10;;;35.10;;
4971;SDS011;2501;51.214;6.768;2023-03-03T00:17:19;75.20;;;35.10;;
4971;SDS011;2501;51.214;6.768;2023-03-03T00:19:49;80.90;;;35.22;;
4971;SDS011;2501;51.214;6.768;2023-03-03T00:22:21;79.23;;;33.77;;
4971;SDS011;2501;51.214;6.768;2023-03-03T00:24:57;81.60;;;35.30;;
4971;SDS011;2501;51.214;6.768;2023-03-03T00:27:33;80.70;;;35.33;;
4971;SDS011;2501;51.214;6.768;2023-03-03T00:30:04;85.37;;;35.27;;
4971;SDS011;2501;51.214;6.768;2023-03-03T00:32:44;81.72;;;34.33;;
4971;SDS011;2501;51.214;6.768;2023-03-03T00:35:21;83.70;;;35.65;;
4971;SDS011;2501;51.214;6.768;2023-03-03T00:37:53;84.68;;;35.60;;
4971;SDS011;2501;51.214;6.768;2023-03-03T00:40:23;87.72;;;36.13;;
4971;SDS011;2501;51.214;6.768;2023-03-03T00:42:56;80.30;;;34.80;;
4971;SDS011;2501;51.214;6.768;2023-03-03T00:45:28;82.13;;;35.73;;
4971;SDS011;2501;51.214;6.768;2023-03-03T00:48:00;83.40;;;36.43;;
4971;SDS011;2501;51.214;6.768;2023-03-03T00:50:43;86.07;;;34.55;;
4971;SDS011;2501;51.214;6.768;2023-03-03T00:53:12;83.70;;;34.58;;
4971;SDS011;2501;51.214;6.768;2023-03-03T00:55:41;74.38;;;33.22;;
4971;SDS011;2501;51.214;6.768;2023-03-03T00:58:13;80.25;;;35.72;;
4971;SDS011;2501;51.214;6.768;2023-03-03T01:00:42;83.63;;;36.25;;
4971;SDS011;2501;51.214;6.768;2023-03-03T01:03:12;92.68;;;36.53;;
4971;SDS011;2501;51.214;6.768;2023-03-03T01:05:42;92.28;;;37.40;;
4971;SDS011;2501;51.214;6.768;2023-03-03T01:08:11;90.10;;;36.33;;
4971;SDS011;2501;51.214;6.768;2023-03-03T01:10:40;91.45;;;38.08;;
4971;SDS011;2501;51.214;6.768;2023-03-03T01:13:13;91.85;;;36.53;;
4971;SDS011;2501;51.214;6.768;2023-03-03T01:15:42;92.30;;;38.70;;
4971;SDS011;2501;51.214;6.768;2023-03-03T01:18:11;93.65;;;38.20;;
4971;SDS011;2501;51.214;6.768;2023-03-03T01:20:40;95.22;;;38.60;;
4971;SDS011;2501;51.214;6.768;2023-03-03T01:23:08;89.20;;;34.15;;
4971;SDS011;2501;51.214;6.768;2023-03-03T01:25:37;96.22;;;37.97;;
4971;SDS011;2501;51.214;6.768;2023-03-03T01:28:05;88.65;;;36.10;;
4971;SDS011;2501;51.214;6.768;2023-03-03T01:30:37;92.32;;;36.08;;
4971;SDS011;2501;51.214;6.768;2023-03-03T01:33:05;92.45;;;36.35;;
4971;SDS011;2501;51.214;6.768;2023-03-03T01:35:34;95.32;;;36.53;;
4971;SDS011;2501;51.214;6.768;2023-03-03T01:38:05;90.60;;;36.97;;
4971;SDS011;2501;51.214;6.768;2023-03-03T01:40:33;93.85;;;38.72;;
4971;SDS011;2501;51.214;6.768;2023-03-03T01:43:01;84.25;;;34.90;;
4971;SDS011;2501;51.214;6.768;2023-03-03T01:45:30;94.60;;;37.53;;
4971;SDS011;2501;51.214;6.768;2023-03-03T01:48:33;90.40;;;37.10;;
4971;SDS011;2501;51.214;6.768;2023-03-03T01:51:08;90.88;;;34.72;;
4971;SDS011;2501;51.214;6.768;2023-03-03T01:53:47;94.00;;;37.22;;
4971;SDS011;2501;51.214;6.768;2023-03-03T01:56:18;93.82;;;36.95;;
4971;SDS011;2501;51.214;6.768;2023-03-03T01:58:48;106.22;;;38.95;;
4971;SDS011;2501;51.214;6.768;2023-03-03T02:01:23;97.13;;;34.70;;
4971;SDS011;2501;51.214;6.768;2023-03-03T02:03:54;98.68;;;40.17;;
4971;SDS011;2501;51.214;6.768;2023-03-03T02:06:23;94.15;;;38.90;;
4971;SDS011;2501;51.214;6.768;2023-03-03T02:08:56;104.63;;;38.55;;
4971;SDS011;2501;51.214;6.768;2023-03-03T02:11:29;97.70;;;38.67;;
4971;SDS011;2501;51.214;6.768;2023-03-03T02:13:59;99.80;;;39.47;;
4971;SDS011;2501;51.214;6.768;2023-03-03T02:16:30;96.32;;;39.17;;
4971;SDS011;2501;51.214;6.768;2023-03-03T02:18:58;105.07;;;40.03;;
4971;SDS011;2501;51.214;6.768;2023-03-03T02:21:27;97.88;;;37.88;;
4971;SDS011;2501;51.214;6.768;2023-03-03T02:23:57;99.70;;;36.78;;
4971;SDS011;2501;51.214;6.768;2023-03-03T02:26:33;99.50;;;38.70;;
4971;SDS011;2501;51.214;6.768;2023-03-03T02:29:06;105.47;;;40.30;;
4971;SDS011;2501;51.214;6.768;2023-03-03T02:31:35;103.40;;;39.00;;
4971;SDS011;2501;51.214;6.768;2023-03-03T02:34:04;112.97;;;43.00;;
4971;SDS011;2501;51.214;6.768;2023-03-03T02:36:34;101.22;;;41.33;;
4971;SDS011;2501;51.214;6.768;2023-03-03T02:39:04;98.25;;;41.65;;
4971;SDS011;2501;51.214;6.768;2023-03-03T02:41:39;102.60;;;45.60;;
4971;SDS011;2501;51.214;6.768;2023-03-03T02:44:12;104.80;;;44.05;;
4971;SDS011;2501;51.214;6.768;2023-03-03T02:46:42;101.90;;;43.47;;
4971;SDS011;2501;51.214;6.768;2023-03-03T02:49:12;108.80;;;45.28;;
4971;SDS011;2501;51.214;6.768;2023-03-03T02:51:42;106.20;;;45.47;;
4971;SDS011;2501;51.214;6.768;2023-03-03T02:54:11;105.47;;;44.53;;
4971;SDS011;2501;51.214;6.768;2023-03-03T02:56:43;101.00;;;43.30;;
4971;SDS011;2501;51.214;6.768;2023-03-03T02:59:12;105.03;;;44.42;;
4971;SDS011;2501;51.214;6.768;2023-03-03T03:01:41;102.70;;;39.93;;
4971;SDS011;2501;51.214;6.768;2023-03-03T03:04:11;98.30;;;38.60;;
4971;SDS011;2501;51.214;6.768;2023-03-03T03:06:41;107.60;;;40.97;;
4971;SDS011;2501;51.214;6.768;2023-03-03T03:09:11;110.13;;;40.90;;
4971;SDS011;2501;51.214;6.768;2023-03-03T03:11:40;119.38;;;43.50;;
4971;SDS011;2501;51.214;6.768;2023-03-03T03:14:12;117.80;;;42.67;;
4971;SDS011;2501;51.214;6.768;2023-03-03T03:16:41;106.47;;;41.30;;
4971;SDS011;2501;51.214;6.768;2023-03-03T03:19:10;106.85;;;40.45;;
4971;SDS011;2501;51.214;6.768;2023-03-03T03:21:38;111.97;;;41.60;;
4971;SDS011;2501;51.214;6.768;2023-03-03T03:24:07;113.97;;;43.80;;
4971;SDS011;2501;51.214;6.768;2023-03-03T03:26:35;128.95;;;44.75;;
4971;SDS011;2501;51.214;6.768;2023-03-03T03:29:03;124.03;;;50.95;;
4971;SDS011;2501;51.214;6.768;2023-03-03T03:31:34;130.32;;;51.45;;
4971;SDS011;2501;51.214;6.768;2023-03-03T03:34:03;127.22;;;51.17;;
4971;SDS011;2501;51.214;6.768;2023-03-03T03:36:32;127.15;;;50.00;;
4971;SDS011;2501;51.214;6.768;2023-03-03T03:39:02;134.25;;;52.70;;
4971;SDS011;2501;51.214;6.768;2023-03-03T03:41:31;131.55;;;51.97;;
4971;SDS011;2501;51.214;6.768;2023-03-03T03:43:59;140.75;;;52.50;;
4971;SDS011;2501;51.214;6.768;2023-03-03T03:46:28;130.40;;;45.53;;
4971;SDS011;2501;51.214;6.768;2023-03-03T03:48:59;131.57;;;46.33;;
4971;SDS011;2501;51.214;6.768;2023-03-03T03:51:27;140.82;;;47.15;;
4971;SDS011;2501;51.214;6.768;2023-03-03T03:53:56;135.25;;;45.90;;
4971;SDS011;2501;51.214;6.768;2023-03-03T03:56:24;124.40;;;44.57;;
4971;SDS011;2501;51.214;6.768;2023-03-03T03:58:52;119.35;;;43.03;;
4971;SDS011;2501;51.214;6.768;2023-03-03T04:01:21;122.75;;;42.53;;
4971;SDS011;2501;51.214;6.768;2023-03-03T04:03:50;136.73;;;45.23;;
4971;SDS011;2501;51.214;6.768;2023-03-03T04:06:21;128.68;;;46.05;;
4971;SDS011;2501;51.214;6.768;2023-03-03T04:08:50;124.55;;;44.03;;
4971;SDS011;2501;51.214;6.768;2023-03-03T04:11:18;124.95;;;43.95;;
4971;SDS011;2501;51.214;6.768;2023-03-03T04:13:47;122.68;;;43.58;;
4971;SDS011;2501;51.214;6.768;2023-03-03T04:16:15;123.68;;;44.92;;
4971;SDS011;2501;51.214;6.768;2023-03-03T04:18:43;127.55;;;43.70;;
4971;SDS011;2501;51.214;6.768;2023-03-03T04:21:12;113.18;;;38.83;;
4971;SDS011;2501;51.214;6.768;2023-03-03T04:23:45;111.88;;;42.20;;
4971;SDS011;2501;51.214;6.768;2023-03-03T04:26:13;117.65;;;42.80;;
4971;SDS011;2501;51.214;6.768;2023-03-03T04:28:41;123.88;;;40.35;;
4971;SDS011;2501;51.214;6.768;2023-03-03T04:31:10;126.60;;;42.58;;
4971;SDS011;2501;51.214;6.768;2023-03-03T04:33:38;129.20;;;45.25;;
4971;SDS011;2501;51.214;6.768;2023-03-03T04:36:07;126.28;;;45.33;;
4971;SDS011;2501;51.214;6.768;2023-03-03T04:38:35;118.63;;;42.95;;
4971;SDS011;2501;51.214;6.768;2023-03-03T04:41:06;120.35;;;42.47;;
4971;SDS011;2501;51.214;6.768;2023-03-03T04:43:35;113.05;;;41.60;;
4971;SDS011;2501;51.214;6.768;2023-03-03T04:46:03;121.22;;;39.13;;
4971;SDS011;2501;51.214;6.768;2023-03-03T04:48:32;120.60;;;38.70;;
4971;SDS011;2501;51.214;6.768;2023-03-03T04:51:00;129.73;;;41.10;;
4971;SDS011;2501;51.214;6.768;2023-03-03T04:53:29;127.55;;;39.15;;
4971;SDS011;2501;51.214;6.768;2023-03-03T04:55:57;131.40;;;41.60;;
4971;SDS011;2501;51.214;6.768;2023-03-03T04:58:28;129.07;;;42.03;;
4971;SDS011;2501;51.214;6.768;2023-03-03T05:00:57;133.20;;;41.42;;
4971;SDS011;2501;51.214;6.768;2023-03-03T05:03:25;134.73;;;43.97;;
4971;SDS011;2501;51.214;6.768;2023-03-03T05:05:54;135.93;;;48.77;;
4971;SDS011;2501;51.214;6.768;2023-03-03T05:08:23;138.20;;;49.22;;
4971;SDS011;2501;51.214;6.768;2023-03-03T05:10:51;142.10;;;47.28;;
4971;SDS011;2501;51.214;6.768;2023-03-03T05:13:21;129.23;;;44.85;;
4971;SDS011;2501;51.214;6.768;2023-03-03T05:15:52;113.10;;;41.08;;
4971;SDS011;2501;51.214;6.768;2023-03-03T05:18:22;109.50;;;38.85;;
4971;SDS011;2501;51.214;6.768;2023-03-03T05:20:51;96.47;;;35.13;;
4971;SDS011;2501;51.214;6.768;2023-03-03T05:23:20;103.90;;;35.72;;
4971;SDS011;2501;51.214;6.768;2023-03-03T05:25:49;97.43;;;33.40;;
4971;SDS011;2501;51.214;6.768;2023-03-03T05:28:18;106.35;;;36.92;;
4971;SDS011;2501;51.214;6.768;2023-03-03T05:30:46;101.05;;;34.13;;
4971;SDS011;2501;51.214;6.768;2023-03-03T05:33:18;104.82;;;34.20;;
4971;SDS011;2501;51.214;6.768;2023-03-03T05:35:46;98.25;;;32.78;;
4971;SDS011;2501;51.214;6.768;2023-03-03T05:38:14;82.72;;;31.98;;
4971;SDS011;2501;51.214;6.768;2023-03-03T05:40:43;97.13;;;34.65;;
4971;SDS011;2501;51.214;6.768;2023-03-03T05:43:11;97.03;;;36.20;;
4971;SDS011;2501;51.214;6.768;2023-03-03T05:45:40;94.85;;;34.97;;
4971;SDS011;2501;51.214;6.768;2023-03-03T05:48:08;93.53;;;35.22;;
4971;SDS011;2501;51.214;6.768;2023-03-03T05:50:39;85.00;;;34.88;;
4971;SDS011;2501;51.214;6.768;2023-03-03T05:53:08;86.20;;;31.65;;
4971;SDS011;2501;51.214;6.768;2023-03-03T05:55:36;84.60;;;30.52;;
4971;SDS011;2501;51.214;6.768;2023-03-03T05:58:05;97.30;;;31.17;;
4971;SDS011;2501;51.214;6.768;2023-03-03T06:00:33;89.50;;;31.67;;
4971;SDS011;2501;51.214;6.768;2023-03-03T06:03:02;91.40;;;29.83;;
4971;SDS011;2501;51.214;6.768;2023-03-03T06:05:31;91.45;;;32.03;;
4971;SDS011;2501;51.214;6.768;2023-03-03T06:08:02;93.55;;;33.15;;
4971;SDS011;2501;51.214;6.768;2023-03-03T06:10:30;98.20;;;33.78;;
4971;SDS011;2501;51.214;6.768;2023-03-03T06:12:59;90.53;;;33.58;;
4971;SDS011;2501;51.214;6.768;2023-03-03T06:15:27;97.60;;;34.85;;
4971;SDS011;2501;51.214;6.768;2023-03-03T06:17:56;97.37;;;35.60;;
4971;SDS011;2501;51.214;6.768;2023-03-03T06:20:24;93.35;;;35.70;;
4971;SDS011;2501;51.214;6.768;2023-03-03T06:22:53;91.00;;;34.20;;
4971;SDS011;2501;51.214;6.768;2023-03-03T06:25:24;88.13;;;31.70;;
4971;SDS011;2501;51.214;6.768;2023-03-03T06:27:52;103.30;;;36.80;;
4971;SDS011;2501;51.214;6.768;2023-03-03T06:30:20;100.50;;;37.22;;
4971;SDS011;2501;51.214;6.768;2023-03-03T06:32:51;113.43;;;38.80;;
4971;SDS011;2501;51.214;6.768;2023-03-03T06:35:19;108.73;;;36.50;;
4971;SDS011;2501;51.214;6.768;2023-03-03T06:37:48;96.60;;;36.50;;
4971;SDS011;2501;51.214;6.768;2023-03-03T06:40:17;91.75;;;32.00;;
4971;SDS011;2501;51.214;6.768;2023-03-03T06:42:48;85.63;;;29.70;;
4971;SDS011;2501;51.214;6.768;2023-03-03T06:45:17;88.40;;;30.38;;
4971;SDS011;2501;51.214;6.768;2023-03-03T06:47:46;79.45;;;27.95;;
4971;SDS011;2501;51.214;6.768;2023-03-03T06:50:14;84.03;;;29.25;;
4971;SDS011;2501;51.214;6.768;2023-03-03T06:52:47;76.35;;;28.38;;
4971;SDS011;2501;51.214;6.768;2023-03-03T06:55:17;72.65;;;26.75;;
4971;SDS011;2501;51.214;6.768;2023-03-03T06:57:52;77.43;;;26.67;;
4971;SDS011;2501;51.214;6.768;2023-03-03T07:00:22;72.00;;;25.15;;
4971;SDS011;2501;51.214;6.768;2023-03-03T07:02:52;74.57;;;27.67;;
4971;SDS011;2501;51.214;6.768;2023-03-03T07:05:26;76.72;;;26.95;;
4971;SDS011;2501;51.214;6.768;2023-03-03T07:07:57;63.53;;;26.05;;
4971;SDS011;2501;51.214;6.768;2023-03-03T07:10:26;78.22;;;28.98;;
4971;SDS011;2501;51.214;6.768;2023-03-03T07:13:00;72.93;;;26.73;;
4971;SDS011;2501;51.214;6.768;2023-03-03T07:15:42;73.60;;;26.87;;
4971;SDS011;2501;51.214;6.768;2023-03-03T07:18:24;73.23;;;27.40;;
4971;SDS011;2501;51.214;6.768;2023-03-03T07:21:03;74.85;;;28.20;;
4971;SDS011;2501;51.214;6.768;2023-03-03T07:23:41;71.72;;;25.77;;
4971;SDS011;2501;51.214;6.768;2023-03-03T07:26:12;73.70;;;25.90;;
4971;SDS011;2501;51.214;6.768;2023-03-03T07:28:46;75.88;;;27.40;;
4971;SDS011;2501;51.214;6.768;2023-03-03T07:31:27;66.40;;;26.40;;
4971;SDS011;2501;51.214;6.768;2023-03-03T07:33:58;67.28;;;26.35;;
4971;SDS011;2501;51.214;6.768;2023-03-03T07:36:28;66.90;;;25.10;;
4971;SDS011;2501;51.214;6.768;2023-03-03T07:38:58;74.97;;;26.13;;
4971;SDS011;2501;51.214;6.768;2023-03-03T07:41:29;70.13;;;25.55;;
4971;SDS011;2501;51.214;6.768;2023-03-03T07:44:05;66.53;;;26.17;;
4971;SDS011;2501;51.214;6.768;2023-03-03T07:46:39;75.80;;;27.92;;
4971;SDS011;2501;51.214;6.768;2023-03-03T07:49:19;72.85;;;28.35;;
4971;SDS011;2501;51.214;6.768;2023-03-03T07:51:51;75.65;;;28.85;;
4971;SDS011;2501;51.214;6.768;2023-03-03T07:54:29;68.75;;;27.02;;
4971;SDS011;2501;51.214;6.768;2023-03-03T07:57:06;70.05;;;28.02;;
4971;SDS011;2501;51.214;6.768;2023-03-03T07:59:46;73.20;;;25.67;;
4971;SDS011;2501;51.214;6.768;2023-03-03T08:02:22;74.55;;;26.25;;
4971;SDS011;2501;51.214;6.768;2023-03-03T08:05:11;79.27;;;29.97;;
4971;SDS011;2501;51.214;6.768;2023-03-03T08:07:52;79.22;;;30.02;;
4971;SDS011;2501;51.214;6.768;2023-03-03T08:10:28;72.47;;;27.52;;
4971;SDS011;2501;51.214;6.768;2023-03-03T08:13:08;67.55;;;25.25;;
4971;SDS011;2501;51.214;6.768;2023-03-03T08:15:47;80.50;;;29.47;;
4971;SDS011;2501;51.214;6.768;2023-03-03T08:18:22;74.72;;;28.40;;
4971;SDS011;2501;51.214;6.768;2023-03-03T08:20:52;76.68;;;30.05;;
4971;SDS011;2501;51.214;6.768;2023-03-03T08:23:23;74.07;;;28.55;;
4971;SDS011;2501;51.214;6.768;2023-03-03T08:25:51;80.60;;;28.30;;
4971;SDS011;2501;51.214;6.768;2023-03-03T08:28:21;74.80;;;28.60;;
4971;SDS011;2501;51.214;6.768;2023-03-03T08:30:52;73.22;;;28.65;;
4971;SDS011;2501;51.214;6.768;2023-03-03T08:33:20;70.75;;;28.30;;
4971;SDS011;2501;51.214;6.768;2023-03-03T08:35:49;79.53;;;32.08;;
4971;SDS011;2501;51.214;6.768;2023-03-03T08:38:18;90.18;;;33.38;;
4971;SDS011;2501;51.214;6.768;2023-03-03T08:40:48;79.43;;;31.25;;
4971;SDS011;2501;51.214;6.768;2023-03-03T08:43:17;88.00;;;32.20;;
4971;SDS011;2501;51.214;6.768;2023-03-03T08:45:47;84.63;;;31.73;;
4971;SDS011;2501;51.214;6.768;2023-03-03T08:48:19;88.93;;;33.22;;
4971;SDS011;2501;51.214;6.768;2023-03-03T08:50:48;84.93;;;32.75;;
4971;SDS011;2501;51.214;6.768;2023-03-03T08:53:17;93.65;;;33.35;;
4971;SDS011;2501;51.214;6.768;2023-03-03T08:55:47;83.37;;;31.00;;
4971;SDS011;2501;51.214;6.768;2023-03-03T08:58:16;86.97;;;32.03;;
4971;SDS011;2501;51.214;6.768;2023-03-03T09:00:46;87.18;;;31.70;;
4971;SDS011;2501;51.214;6.768;2023-03-03T09:03:15;89.18;;;29.98;;
4971;SDS011;2501;51.214;6.768;2023-03-03T09:05:46;85.82;;;28.73;;
4971;SDS011;2501;51.214;6.768;2023-03-03T09:08:14;85.57;;;31.88;;
4971;SDS011;2501;51.214;6.768;2023-03-03T09:10:43;95.88;;;33.20;;
4971;SDS011;2501;51.214;6.768;2023-03-03T09:13:12;98.45;;;33.20;;
4971;SDS011;2501;51.214;6.768;2023-03-03T09:15:43;88.80;;;30.40;;
4971;SDS011;2501;51.214;6.768;2023-03-03T09:18:15;95.13;;;33.90;;
4971;SDS011;2501;51.214;6.768;2023-03-03T09:20:49;101.45;;;34.92;;
4971;SDS011;2501;51.214;6.768;2023-03-03T09:23:27;90.70;;;32.30;;
4971;SDS011;2501;51.214;6.768;2023-03-03T09:26:05;88.10;;;33.17;;
4971;SDS011;2501;51.214;6.768;2023-03-03T09:28:51;87.43;;;33.35;;
4971;SDS011;2501;51.214;6.768;2023-03-03T09:31:21;90.28;;;31.42;;
4971;SDS011;2501;51.214;6.768;2023-03-03T09:33:53;93.32;;;32.75;;
4971;SDS011;2501;51.214;6.768;2023-03-03T09:36:27;98.15;;;32.90;;
4971;SDS011;2501;51.214;6.768;2023-03-03T09:38:56;86.90;;;31.52;;
4971;SDS011;2501;51.214;6.768;2023-03-03T09:44:28;104.55;;;31.73;;
4971;SDS011;2501;51.214;6.768;2023-03-03T09:47:13;97.78;;;30.02;;
4971;SDS011;2501;51.214;6.768;2023-03-03T09:49:56;87.28;;;31.48;;
4971;SDS011;2501;51.214;6.768;2023-03-03T09:52:40;86.35;;;33.03;;
4971;SDS011;2501;51.214;6.768;2023-03-03T09:55:21;89.18;;;32.30;;
4971;SDS011;2501;51.214;6.768;2023-03-03T09:58:08;90.05;;;31.45;;
4971;SDS011;2501;51.214;6.768;2023-03-03T10:00:54;84.43;;;29.67;;
4971;SDS011;2501;51.214;6.768;2023-03-03T10:03:43;86.90;;;32.00;;
4971;SDS011;2501;51.214;6.768;2023-03-03T10:06:32;90.33;;;32.20;;
4971;SDS011;2501;51.214;6.768;2023-03-03T10:09:19;86.22;;;32.60;;
4971;SDS011;2501;51.214;6.768;2023-03-03T10:12:04;90.68;;;34.70;;
4971;SDS011;2501;51.214;6.768;2023-03-03T10:17:38;83.97;;;31.33;;
4971;SDS011;2501;51.214;6.768;2023-03-03T10:20:22;79.43;;;29.65;;
4971;SDS011;2501;51.214;6.768;2023-03-03T10:23:04;88.90;;;30.15;;
4971;SDS011;2501;51.214;6.768;2023-03-03T10:25:58;81.10;;;30.20;;
4971;SDS011;2501;51.214;6.768;2023-03-03T10:31:46;73.47;;;27.48;;
4971;SDS011;2501;51.214;6.768;2023-03-03T10:34:25;77.80;;;26.90;;
4971;SDS011;2501;51.214;6.768;2023-03-03T10:37:15;78.82;;;27.90;;
4971;SDS011;2501;51.214;6.768;2023-03-03T10:39:55;75.55;;;27.60;;
4971;SDS011;2501;51.214;6.768;2023-03-03T10:42:43;72.88;;;28.33;;
4971;SDS011;2501;51.214;6.768;2023-03-03T10:45:38;67.38;;;25.27;;
4971;SDS011;2501;51.214;6.768;2023-03-03T10:48:16;69.07;;;27.67;;
4971;SDS011;2501;51.214;6.768;2023-03-03T10:50:53;68.90;;;25.92;;
4971;SDS011;2501;51.214;6.768;2023-03-03T10:53:31;62.17;;;25.60;;
4971;SDS011;2501;51.214;6.768;2023-03-03T10:56:14;75.18;;;25.90;;
4971;SDS011;2501;51.214;6.768;2023-03-03T10:59:09;73.50;;;27.70;;
4971;SDS011;2501;51.214;6.768;2023-03-03T11:01:51;66.97;;;26.40;;
4971;SDS011;2501;51.214;6.768;2023-03-03T11:04:37;70.13;;;27.57;;
4971;SDS011;2501;51.214;6.768;2023-03-03T11:07:16;65.45;;;26.77;;
4971;SDS011;2501;51.214;6.768;2023-03-03T11:09:55;68.15;;;28.92;;
4971;SDS011;2501;51.214;6.768;2023-03-03T11:12:39;73.57;;;27.83;;
4971;SDS011;2501;51.214;6.768;2023-03-03T11:15:22;74.65;;;26.33;;
4971;SDS011;2501;51.214;6.768;2023-03-03T11:18:06;69.47;;;25.70;;
4971;SDS011;2501;51.214;6.768;2023-03-03T11:20:44;64.25;;;25.90;;
4971;SDS011;2501;51.214;6.768;2023-03-03T11:23:33;65.72;;;25.67;;
4971;SDS011;2501;51.214;6.768;2023-03-03T11:26:11;77.93;;;28.05;;
4971;SDS011;2501;51.214;6.768;2023-03-03T11:28:56;70.82;;;26.75;;
4971;SDS011;2501;51.214;6.768;2023-03-03T11:31:42;62.35;;;26.05;;
4971;SDS011;2501;51.214;6.768;2023-03-03T11:34:18;68.85;;;25.17;;
4971;SDS011;2501;51.214;6.768;2023-03-03T11:37:05;70.93;;;26.52;;
4971;SDS011;2501;51.214;6.768;2023-03-03T11:39:36;63.17;;;24.60;;
4971;SDS011;2501;51.214;6.768;2023-03-03T11:42:07;66.15;;;24.75;;
4971;SDS011;2501;51.214;6.768;2023-03-03T11:44:51;63.03;;;26.13;;
4971;SDS011;2501;51.214;6.768;2023-03-03T11:47:30;70.18;;;26.83;;
4971;SDS011;2501;51.214;6.768;2023-03-03T11:50:07;74.65;;;28.08;;
4971;SDS011;2501;51.214;6.768;2023-03-03T11:52:44;60.60;;;25.45;;
4971;SDS011;2501;51.214;6.768;2023-03-03T11:55:22;62.65;;;25.88;;
4971;SDS011;2501;51.214;6.768;2023-03-03T11:58:00;72.05;;;27.35;;
4971;SDS011;2501;51.214;6.768;2023-03-03T12:00:40;57.47;;;24.30;;
4971;SDS011;2501;51.214;6.768;2023-03-03T12:03:23;65.53;;;26.48;;
4971;SDS011;2501;51.214;6.768;2023-03-03T12:05:56;64.88;;;25.92;;
4971;SDS011;2501;51.214;6.768;2023-03-03T12:08:38;64.60;;;27.00;;
4971;SDS011;2501;51.214;6.768;2023-03-03T12:11:18;62.42;;;25.85;;
4971;SDS011;2501;51.214;6.768;2023-03-03T12:13:53;64.68;;;24.85;;
4971;SDS011;2501;51.214;6.768;2023-03-03T12:16:31;67.57;;;25.77;;
4971;SDS011;2501;51.214;6.768;2023-03-03T12:19:11;61.83;;;26.05;;
4971;SDS011;2501;51.214;6.768;2023-03-03T12:21:54;60.03;;;23.55;;
4971;SDS011;2501;51.214;6.768;2023-03-03T12:24:32;58.05;;;23.55;;
4971;SDS011;2501;51.214;6.768;2023-03-03T12:27:14;61.20;;;23.77;;
4971;SDS011;2501;51.214;6.768;2023-03-03T12:29:52;57.30;;;22.77;;
4971;SDS011;2501;51.214;6.768;2023-03-03T12:32:40;57.60;;;24.15;;
4971;SDS011;2501;51.214;6.768;2023-03-03T12:35:29;61.07;;;24.50;;
4971;SDS011;2501;51.214;6.768;2023-03-03T12:38:03;57.47;;;23.73;;
4971;SDS011;2501;51.214;6.768;2023-03-03T12:40:38;59.47;;;23.17;;
4971;SDS011;2501;51.214;6.768;2023-03-03T12:43:15;57.00;;;23.65;;
4971;SDS011;2501;51.214;6.768;2023-03-03T12:45:52;61.45;;;24.05;;
4971;SDS011;2501;51.214;6.768;2023-03-03T12:48:28;64.13;;;23.88;;
4971;SDS011;2501;51.214;6.768;2023-03-03T12:51:09;55.72;;;23.27;;
4971;SDS011;2501;51.214;6.768;2023-03-03T12:53:49;61.00;;;23.70;;
4971;SDS011;2501;51.214;6.768;2023-03-03T12:56:31;56.35;;;24.67;;
4971;SDS011;2501;51.214;6.768;2023-03-03T12:59:07;62.70;;;24.10;;
4971;SDS011;2501;51.214;6.768;2023-03-03T13:01:44;64.07;;;24.27;;
4971;SDS011;2501;51.214;6.768;2023-03-03T13:04:28;76.90;;;24.60;;
4971;SDS011;2501;51.214;6.768;2023-03-03T13:07:08;58.67;;;24.02;;
4971;SDS011;2501;51.214;6.768;2023-03-03T13:09:48;60.58;;;23.23;;
4971;SDS011;2501;51.214;6.768;2023-03-03T13:12:29;56.72;;;23.15;;
4971;SDS011;2501;51.214;6.768;2023-03-03T13:15:06;58.83;;;23.33;;
4971;SDS011;2501;51.214;6.768;2023-03-03T13:17:42;53.65;;;22.40;;
4971;SDS011;2501;51.214;6.768;2023-03-03T13:20:21;51.47;;;21.92;;
4971;SDS011;2501;51.214;6.768;2023-03-03T13:23:03;54.63;;;22.80;;
4971;SDS011;2501;51.214;6.768;2023-03-03T13:25:38;53.33;;;21.27;;
4971;SDS011;2501;51.214;6.768;2023-03-03T13:28:18;54.20;;;22.08;;
4971;SDS011;2501;51.214;6.768;2023-03-03T13:30:54;52.25;;;20.88;;
4971;SDS011;2501;51.214;6.768;2023-03-03T13:33:29;50.88;;;21.30;;
4971;SDS011;2501;51.214;6.768;2023-03-03T13:36:01;55.78;;;22.23;;
4971;SDS011;2501;51.214;6.768;2023-03-03T13:38:35;57.95;;;21.45;;
4971;SDS011;2501;51.214;6.768;2023-03-03T13:41:13;57.95;;;22.30;;
4971;SDS011;2501;51.214;6.768;2023-03-03T13:43:50;57.00;;;21.70;;
4971;SDS011;2501;51.214;6.768;2023-03-03T13:46:27;50.35;;;21.90;;
4971;SDS011;2501;51.214;6.768;2023-03-03T13:49:17;58.25;;;23.30;;
4971;SDS011;2501;51.214;6.768;2023-03-03T13:51:59;49.25;;;21.00;;
4971;SDS011;2501;51.214;6.768;2023-03-03T13:54:39;48.05;;;21.50;;
4971;SDS011;2501;51.214;6.768;2023-03-03T13:57:26;51.07;;;21.30;;
4971;SDS011;2501;51.214;6.768;2023-03-03T14:00:09;51.22;;;21.45;;
4971;SDS011;2501;51.214;6.768;2023-03-03T14:02:50;48.20;;;20.33;;
4971;SDS011;2501;51.214;6.768;2023-03-03T14:05:33;42.25;;;19.27;;
4971;SDS011;2501;51.214;6.768;2023-03-03T14:08:07;47.20;;;21.35;;
4971;SDS011;2501;51.214;6.768;2023-03-03T14:10:46;44.77;;;20.90;;
4971;SDS011;2501;51.214;6.768;2023-03-03T14:13:22;48.10;;;21.57;;
4971;SDS011;2501;51.214;6.768;2023-03-03T14:16:01;50.95;;;22.17;;
4971;SDS011;2501;51.214;6.768;2023-03-03T14:18:35;48.13;;;21.80;;
4971;SDS011;2501;51.214;6.768;2023-03-03T14:21:08;47.03;;;20.52;;
4971;SDS011;2501;51.214;6.768;2023-03-03T14:23:46;47.17;;;21.70;;
4971;SDS011;2501;51.214;6.768;2023-03-03T14:26:24;50.22;;;21.33;;
4971;SDS011;2501;51.214;6.768;2023-03-03T14:29:03;46.20;;;21.17;;
4971;SDS011;2501;51.214;6.768;2023-03-03T14:31:43;43.30;;;21.15;;
4971;SDS011;2501;51.214;6.768;2023-03-03T14:34:25;48.97;;;22.42;;
4971;SDS011;2501;51.214;6.768;2023-03-03T14:37:18;44.83;;;22.20;;
4971;SDS011;2501;51.214;6.768;2023-03-03T14:39:50;48.35;;;22.80;;
4971;SDS011;2501;51.214;6.768;2023-03-03T14:42:32;44.03;;;21.85;;
4971;SDS011;2501;51.214;6.768;2023-03-03T14:45:14;49.42;;;22.73;;
4971;SDS011;2501;51.214;6.768;2023-03-03T14:47:48;46.85;;;20.45;;
4971;SDS011;2501;51.214;6.768;2023-03-03T14:50:28;48.78;;;22.88;;
4971;SDS011;2501;51.214;6.768;2023-03-03T14:53:03;51.90;;;23.38;;
4971;SDS011;2501;51.214;6.768;2023-03-03T14:55:38;49.08;;;23.02;;
4971;SDS011;2501;51.214;6.768;2023-03-03T14:58:22;47.95;;;22.77;;
4971;SDS011;2501;51.214;6.768;2023-03-03T15:01:12;49.35;;;22.50;;
4971;SDS011;2501;51.214;6.768;2023-03-03T15:03:43;49.72;;;23.60;;
4971;SDS011;2501;51.214;6.768;2023-03-03T15:09:20;48.97;;;22.90;;
4971;SDS011;2501;51.214;6.768;2023-03-03T15:11:55;51.45;;;22.75;;
4971;SDS011;2501;51.214;6.768;2023-03-03T15:14:30;51.53;;;22.60;;
4971;SDS011;2501;51.214;6.768;2023-03-03T15:22:50;48.25;;;22.58;;
4971;SDS011;2501;51.214;6.768;2023-03-03T15:25:25;47.25;;;24.10;;
4971;SDS011;2501;51.214;6.768;2023-03-03T15:28:07;49.72;;;22.60;;
4971;SDS011;2501;51.214;6.768;2023-03-03T15:30:50;54.58;;;24.75;;
4971;SDS011;2501;51.214;6.768;2023-03-03T15:33:27;50.13;;;24.35;;
4971;SDS011;2501;51.214;6.768;2023-03-03T15:36:00;58.83;;;25.60;;
4971;SDS011;2501;51.214;6.768;2023-03-03T15:38:37;53.40;;;24.60;;
4971;SDS011;2501;51.214;6.768;2023-03-03T15:41:18;50.08;;;24.73;;
4971;SDS011;2501;51.214;6.768;2023-03-03T15:43:56;50.17;;;23.40;;
4971;SDS011;2501;51.214;6.768;2023-03-03T15:46:39;49.53;;;25.48;;